Time;durP1;ratioP1;P1;durP2;ratioP2;P2;SDS_P1;SDS_P2;PMS_P1;PMS_P2;Temp;Humidity;BMP_temperature;BMP_pressure;BME280_temperature;BME280_humidity;BME280_pressure;Samples;Min_cycle;Max_cycle;Signal;HPM_P1;HPM_P2
2023/07/14 00:01:59;;;;;;;2.53;2.42;;;20.20;99.90;;;20.62;69.32;101589.22;5054139;28;20044;-75
2023/07/14 00:04:31;;;;;;;2.75;2.65;;;20.20;99.90;;;20.58;69.43;101590.25;5054108;28;20103;-75
2023/07/14 00:07:01;;;;;;;2.60;2.50;;;20.20;99.90;;;20.58;69.31;101584.00;5050498;28;20056;-74
2023/07/14 00:09:32;;;;;;;2.80;2.70;;;20.20;99.90;;;20.55;69.51;101592.19;5054409;28;20072;-76
2023/07/14 00:12:01;;;;;;;3.00;2.90;;;20.20;99.90;;;20.56;69.59;101588.53;5054298;28;20083;-75
2023/07/14 00:14:30;;;;;;;2.50;2.40;;;20.20;99.90;;;20.42;69.57;101564.81;5054573;28;20106;-75
2023/07/14 00:16:58;;;;;;;2.53;2.42;;;20.20;99.90;;;20.54;69.67;101582.34;5054010;28;20071;-74
2023/07/14 00:19:27;;;;;;;2.80;2.70;;;20.20;99.90;;;20.55;69.74;101584.13;5054257;28;20083;-75
2023/07/14 00:21:56;;;;;;;2.90;2.80;;;20.20;99.90;;;20.56;69.83;101589.44;5053721;28;20053;-75
2023/07/14 00:24:26;;;;;;;2.55;2.45;;;20.20;99.90;;;20.56;69.59;101572.41;5053238;28;20102;-75
2023/07/14 00:26:57;;;;;;;2.60;2.50;;;20.20;99.90;;;20.57;69.90;101574.19;5050173;28;20128;-75
2023/07/14 00:29:37;;;;;;;2.42;2.33;;;20.20;99.90;;;20.58;69.62;101576.81;5050909;28;20301;-75
2023/07/14 00:32:14;;;;;;;2.63;2.53;;;20.20;99.90;;;20.56;69.56;101577.78;5052676;28;20056;-74
2023/07/14 00:34:43;;;;;;;2.47;2.38;;;20.20;99.90;;;20.56;69.50;101577.78;5065742;28;20288;-75
2023/07/14 00:37:12;;;;;;;2.53;2.42;;;20.20;99.90;;;20.54;69.44;101569.78;5053833;28;20051;-75
2023/07/14 00:39:42;;;;;;;2.40;2.30;;;20.20;99.90;;;20.39;69.49;101537.19;5050323;28;20053;-75
2023/07/14 00:42:16;;;;;;;2.28;2.17;;;20.20;99.90;;;20.56;69.67;101570.63;5052374;28;20049;-75
2023/07/14 00:44:45;;;;;;;2.38;2.28;;;20.20;99.90;;;20.54;69.63;101569.78;5053823;28;20048;-74
2023/07/14 00:47:21;;;;;;;2.20;2.10;;;20.20;99.90;;;20.53;69.72;101562.66;5068939;28;20099;-75
2023/07/14 00:49:51;;;;;;;2.30;2.20;;;20.20;99.90;;;20.57;69.57;101564.31;5065882;28;20099;-75
2023/07/14 00:52:28;;;;;;;2.40;2.30;;;20.20;99.90;;;20.55;69.62;101565.28;5053876;28;20045;-75
2023/07/14 00:54:57;;;;;;;2.25;2.15;;;20.20;99.90;;;20.51;69.92;101559.16;5053542;28;20498;-75
2023/07/14 00:57:29;;;;;;;2.60;2.50;;;20.10;99.90;;;20.46;70.13;101549.50;5053431;28;20102;-75
2023/07/14 01:00:04;;;;;;;2.30;2.20;;;20.10;99.90;;;20.45;70.23;101556.66;5049514;28;20479;-75
2023/07/14 01:02:33;;;;;;;2.20;2.10;;;20.10;99.90;;;20.47;70.53;101557.50;5060714;28;20040;-75
2023/07/14 01:05:07;;;;;;;2.10;2.00;;;20.00;99.90;;;20.48;70.55;101559.25;5053017;28;20039;-75
2023/07/14 01:07:40;;;;;;;2.40;2.30;;;20.10;99.90;;;20.43;70.67;101552.28;5052010;28;20063;-76
2023/07/14 01:10:13;;;;;;;2.40;2.30;;;20.10;99.90;;;20.42;70.76;101558.59;5064447;28;20411;-75
2023/07/14 01:12:50;;;;;;;2.25;2.15;;;20.00;99.90;;;20.38;71.13;101552.41;5053203;28;20098;-75
2023/07/14 01:15:18;;;;;;;2.20;2.10;;;20.00;99.90;;;20.37;71.24;101547.97;5051164;28;20530;-74
2023/07/14 01:17:50;;;;;;;2.40;2.30;;;19.90;99.90;;;20.33;71.41;101542.75;5052811;28;20103;-75
2023/07/14 01:20:20;;;;;;;2.70;2.60;;;19.90;99.90;;;20.27;71.70;101541.16;5049041;28;20120;-75
2023/07/14 01:23:03;;;;;;;2.53;2.42;;;19.90;99.90;;;20.26;71.80;101546.59;5049318;28;20143;-74
2023/07/14 01:25:47;;;;;;;2.20;2.10;;;19.80;99.90;;;20.26;71.87;101541.22;5051775;28;20053;-75
2023/07/14 01:28:19;;;;;;;2.53;2.42;;;19.80;99.90;;;20.26;71.65;101542.09;5049195;28;20045;-75
2023/07/14 01:30:48;;;;;;;2.80;2.70;;;19.90;99.90;;;20.16;71.89;101524.50;5052624;28;20561;-74
2023/07/14 01:33:18;;;;;;;2.53;2.42;;;19.80;99.90;;;20.22;72.01;101537.75;5050995;28;20072;-75
2023/07/14 01:35:51;;;;;;;2.45;2.35;;;19.80;99.90;;;20.17;72.04;101534.28;5052650;28;20416;-75
2023/07/14 01:38:21;;;;;;;2.90;2.80;;;19.80;99.90;;;20.17;71.97;101541.50;5049257;28;20048;-74
2023/07/14 01:40:51;;;;;;;2.30;2.20;;;19.70;99.90;;;20.09;72.25;101528.28;5052739;28;20124;-74
2023/07/14 01:43:23;;;;;;;2.60;2.50;;;19.70;99.90;;;20.13;72.13;101538.00;5049960;28;20144;-74
2023/07/14 01:45:56;;;;;;;2.40;2.30;;;19.70;99.90;;;20.13;72.14;101532.63;5052835;28;20052;-74
2023/07/14 01:48:29;;;;;;;2.50;2.40;;;19.70;99.90;;;20.11;72.10;101536.31;5052526;28;20052;-75
2023/07/14 01:51:03;;;;;;;2.45;2.35;;;19.70;99.90;;;20.08;72.43;101534.59;5048928;28;20059;-74
2023/07/14 01:53:39;;;;;;;2.50;2.40;;;19.70;99.90;;;20.05;72.22;101545.47;5052372;28;20415;-74
2023/07/14 01:56:12;;;;;;;2.90;2.80;;;19.70;99.90;;;19.98;72.30;101530.47;5052803;28;20049;-74
2023/07/14 01:58:52;;;;;;;2.80;2.70;;;19.60;99.90;;;19.93;72.38;101543.16;5051475;28;20395;-74
2023/07/14 02:01:23;;;;;;;2.70;2.60;;;19.60;99.90;;;19.90;72.68;101535.19;5049301;28;20128;-75
2023/07/14 02:03:56;;;;;;;2.42;2.33;;;19.50;99.90;;;19.78;73.02;101543.66;5051343;28;20049;-75
2023/07/14 02:06:25;;;;;;;8.43;3.75;;;19.50;99.90;;;19.62;73.23;101532.50;5051005;28;20084;-75
2023/07/14 02:08:54;;;;;;;2.50;2.40;;;19.30;99.90;;;19.55;73.33;101530.94;5048709;28;20458;-75
2023/07/14 02:11:24;;;;;;;2.60;2.50;;;19.30;99.90;;;19.54;73.67;101515.75;5052762;28;20037;-74
2023/07/14 02:13:57;;;;;;;2.85;2.75;;;19.20;99.90;;;19.51;73.77;101512.31;5049043;28;20080;-76
2023/07/14 02:16:26;;;;;;;2.95;2.85;;;19.20;99.90;;;19.52;73.70;101514.03;5052245;28;20041;-75
2023/07/14 02:18:56;;;;;;;2.55;2.45;;;19.20;99.90;;;19.53;73.91;101515.81;5052436;28;20045;-74
2023/07/14 02:21:30;;;;;;;2.55;2.45;;;19.20;99.90;;;19.56;73.69;101515.72;5051007;28;20059;-74
2023/07/14 02:24:00;;;;;;;2.22;2.13;;;19.20;99.90;;;19.56;73.68;101510.34;5048929;28;20090;-76
2023/07/14 02:26:34;;;;;;;2.35;2.25;;;19.20;99.90;;;19.45;73.75;101499.06;5052568;28;20064;-74
2023/07/14 02:29:06;;;;;;;2.42;2.33;;;19.10;99.90;;;19.32;73.99;101513.72;5052416;28;20053;-74
2023/07/14 02:31:40;;;;;;;2.60;2.50;;;19.10;99.90;;;19.33;74.00;101502.13;5052406;28;20085;-73
2023/07/14 02:34:12;;;;;;;2.30;2.20;;;19.00;99.90;;;19.30;73.94;101505.72;5048745;28;20037;-74
2023/07/14 02:36:56;;;;;;;2.65;2.55;;;19.00;99.90;;;19.23;74.15;101503.28;5050957;28;20502;-75
2023/07/14 02:39:25;;;;;;;2.30;2.20;;;18.90;99.90;;;19.21;74.20;101499.75;5052277;28;20124;-75
2023/07/14 02:41:57;;;;;;;2.22;2.13;;;18.90;99.90;;;19.19;74.03;101505.19;5052109;28;20056;-75
2023/07/14 02:44:33;;;;;;;2.10;2.00;;;18.80;99.90;;;18.67;74.71;101440.56;5064524;28;20126;-75
2023/07/14 02:47:07;;;;;;;2.63;2.53;;;18.70;99.90;;;19.00;74.75;101503.06;5059597;28;20099;-74
2023/07/14 02:49:36;;;;;;;2.33;2.22;;;18.60;99.90;;;19.00;74.75;101505.75;5055980;28;20071;-74
2023/07/14 02:52:05;;;;;;;2.30;2.20;;;18.60;99.90;;;18.99;74.99;101506.69;5056113;28;20478;-74
2023/07/14 02:54:34;;;;;;;2.80;2.70;;;18.60;99.90;;;18.93;75.22;101508.59;5055797;28;20095;-74
2023/07/14 02:57:04;;;;;;;2.20;2.10;;;18.60;99.90;;;18.96;75.31;101513.00;5054155;28;20144;-74
2023/07/14 02:59:34;;;;;;;2.50;2.40;;;18.60;99.90;;;18.99;75.46;101504.00;5055702;28;20051;-75
2023/07/14 03:02:03;;;;;;;2.40;2.30;;;18.60;99.90;;;19.04;75.54;101512.78;5055591;28;20471;-74
2023/07/14 03:04:34;;;;;;;2.60;2.50;;;18.60;99.90;;;18.99;75.80;101512.06;5055632;28;20037;-75
2023/07/14 03:07:04;;;;;;;2.40;2.30;;;18.60;99.90;;;19.01;75.83;101504.84;5054320;28;20064;-75
2023/07/14 03:09:32;;;;;;;2.70;2.60;;;18.60;99.90;;;19.00;75.88;101498.59;5055495;28;20090;-75
2023/07/14 03:12:01;;;;;;;2.50;2.40;;;18.60;99.90;;;18.99;76.15;101501.34;5050237;28;20440;-75
2023/07/14 03:14:29;;;;;;;2.60;2.50;;;18.60;99.90;;;19.00;76.24;101492.34;5047485;28;20468;-75
2023/07/14 03:16:59;;;;;;;2.55;2.45;;;18.60;99.90;;;18.99;76.48;101493.28;5070798;28;20049;-75
2023/07/14 03:19:27;;;;;;;3.00;2.90;;;18.60;99.90;;;18.88;76.57;101488.22;5055351;28;20060;-75
2023/07/14 03:21:57;;;;;;;2.50;2.40;;;18.60;99.90;;;18.90;76.78;101489.06;5053469;28;20084;-74
2023/07/14 03:24:25;;;;;;;2.70;2.60;;;18.50;99.90;;;18.84;76.93;101486.53;5054031;28;20053;-74
2023/07/14 03:26:54;;;;;;;3.17;3.08;;;18.50;99.90;;;18.83;77.32;101485.66;5052876;28;20053;-75
2023/07/14 03:29:23;;;;;;;2.55;2.45;;;18.40;99.90;;;18.85;77.19;101485.63;5055056;28;20045;-75
2023/07/14 03:31:51;;;;;;;2.40;2.30;;;18.40;99.90;;;18.88;77.29;101483.75;5053783;28;20474;-74
2023/07/14 03:34:22;;;;;;;2.53;2.42;;;18.40;99.90;;;18.87;77.39;101489.16;5067106;28;20059;-74
2023/07/14 03:36:52;;;;;;;2.60;2.50;;;18.50;99.90;;;18.86;77.58;101476.66;5034502;28;20057;-73
2023/07/14 03:39:24;;;;;;;2.30;2.20;;;18.50;99.90;;;18.86;77.78;101485.59;5054930;28;20081;-75
2023/07/14 03:41:54;;;;;;;2.40;2.30;;;18.50;99.90;;;18.84;78.03;101486.53;5054587;28;20045;-75
2023/07/14 03:44:23;;;;;;;2.40;2.30;;;18.40;99.90;;;18.83;78.47;101487.47;5055005;28;20033;-75
2023/07/14 03:46:52;;;;;;;2.50;2.40;;;18.40;99.90;;;18.72;78.80;101478.84;5053340;28;20489;-74
2023/07/14 03:49:22;;;;;;;2.40;2.30;;;18.40;99.90;;;18.80;79.04;101469.66;5054500;28;20071;-75
2023/07/14 03:51:51;;;;;;;2.75;2.65;;;18.40;99.90;;;18.70;79.25;101467.28;5050800;28;20472;-74
2023/07/14 03:54:19;;;;;;;2.50;2.40;;;18.40;99.90;;;18.69;79.70;101470.91;5053386;28;20037;-75
2023/07/14 03:56:52;;;;;;;2.83;2.72;;;18.30;99.90;;;18.72;79.68;101476.16;5054312;28;20502;-74
2023/07/14 03:59:20;;;;;;;2.25;2.15;;;18.30;99.90;;;18.72;79.88;101470.78;5052332;28;20486;-75
2023/07/14 04:01:49;;;;;;;2.60;2.50;;;18.40;99.90;;;18.71;80.37;101466.38;5053268;28;20124;-74
2023/07/14 04:04:19;;;;;;;2.70;2.60;;;18.40;99.90;;;18.70;80.34;101472.63;5061480;28;20054;-75
2023/07/14 04:06:50;;;;;;;2.83;2.72;;;18.40;99.90;;;18.64;80.60;101462.97;5053132;28;20144;-74
2023/07/14 04:09:18;;;;;;;2.78;2.67;;;18.40;99.90;;;18.79;80.60;101467.91;5054222;28;20057;-75
2023/07/14 04:11:47;;;;;;;2.67;2.58;;;18.40;99.90;;;18.70;81.00;101468.16;5050388;28;20060;-75
2023/07/14 04:14:16;;;;;;;2.90;2.80;;;18.40;99.90;;;18.76;81.11;101473.34;5054014;28;20040;-75
2023/07/14 04:16:44;;;;;;;3.28;3.08;;;18.40;99.90;;;18.67;81.30;101468.25;5054354;28;20102;-74
2023/07/14 04:19:12;;;;;;;2.38;2.28;;;18.40;99.90;;;18.74;81.51;101467.16;5052936;28;20041;-75
2023/07/14 04:21:41;;;;;;;2.70;2.60;;;18.40;99.90;;;18.71;81.67;101461.91;5067778;28;20100;-75
2023/07/14 04:24:11;;;;;;;2.60;2.50;;;18.40;99.90;;;18.65;82.08;101467.44;5054108;28;20735;-75
2023/07/14 04:26:39;;;;;;;2.60;2.50;;;18.30;99.90;;;18.66;82.32;101462.97;5052773;28;20103;-75
2023/07/14 04:29:11;;;;;;;3.05;2.95;;;18.30;99.90;;;18.68;82.43;101461.97;5054023;28;20492;-75
2023/07/14 04:31:39;;;;;;;3.35;3.20;;;18.30;99.90;;;18.49;83.00;101462.53;5048785;28;20045;-75
2023/07/14 04:34:08;;;;;;;2.45;2.35;;;18.30;99.90;;;18.38;84.01;101464.59;5050111;28;20049;-75
2023/07/14 04:36:37;;;;;;;3.05;2.95;;;18.10;99.90;;;18.46;84.20;101462.63;5053845;28;20059;-74
2023/07/14 04:39:07;;;;;;;2.47;2.38;;;18.10;99.90;;;18.48;84.25;101460.78;5053814;28;20037;-75
2023/07/14 04:41:37;;;;;;;2.58;2.47;;;18.20;99.90;;;18.55;84.09;101460.56;5053554;28;20692;-75
2023/07/14 04:44:09;;;;;;;2.60;2.50;;;18.20;99.90;;;18.63;84.30;101463.03;5053676;28;20120;-74
2023/07/14 04:46:38;;;;;;;2.65;2.55;;;18.30;99.90;;;18.20;83.85;101364.19;5053449;28;20056;-75
2023/07/14 04:49:07;;;;;;;2.50;2.40;;;18.40;99.90;;;18.84;83.95;101463.31;5053893;28;20136;-75
2023/07/14 04:51:36;;;;;;;2.75;2.65;;;18.50;99.90;;;18.90;83.94;101457.75;5049574;28;20375;-74
2023/07/14 04:54:06;;;;;;;2.75;2.65;;;18.50;99.90;;;18.91;83.99;101456.81;5053472;28;20099;-74
2023/07/14 04:56:35;;;;;;;2.50;2.40;;;18.60;99.90;;;18.89;84.11;101461.34;5053195;28;20041;-75
2023/07/14 04:59:07;;;;;;;2.40;2.30;;;18.60;99.90;;;18.22;83.84;101334.66;5053394;28;20072;-74
2023/07/14 05:01:35;;;;;;;2.60;2.50;;;18.60;99.90;;;18.93;83.98;101454.09;5053160;28;20037;-75
2023/07/14 05:04:04;;;;;;;2.58;2.47;;;18.60;99.90;;;18.95;84.14;101459.44;5052991;28;20072;-75
2023/07/14 05:06:33;;;;;;;2.80;2.70;;;18.60;99.90;;;18.96;84.08;101455.81;5053066;28;20048;-75
2023/07/14 05:09:01;;;;;;;3.10;2.80;;;18.60;99.90;;;18.99;84.28;101458.44;5053316;28;20037;-76
2023/07/14 05:11:30;;;;;;;2.78;2.67;;;18.70;99.90;;;18.96;84.15;101453.13;5048883;28;20052;-75
2023/07/14 05:13:58;;;;;;;2.50;2.40;;;18.70;99.90;;;19.06;84.07;101457.31;5052010;28;20128;-75
2023/07/14 05:16:28;;;;;;;2.33;2.22;;;18.70;99.90;;;19.13;84.00;101450.81;5049467;28;20083;-74
2023/07/14 05:18:56;;;;;;;2.50;2.40;;;18.80;99.90;;;19.20;83.58;101449.72;5053117;28;20045;-74
2023/07/14 05:21:25;;;;;;;2.70;2.60;;;18.80;99.90;;;19.21;83.54;101449.69;5052875;28;20339;-74
2023/07/14 05:23:53;;;;;;;2.30;2.20;;;18.80;99.90;;;19.25;83.39;101447.78;5052451;28;20473;-74
2023/07/14 05:26:21;;;;;;;3.15;3.05;;;18.90;99.90;;;19.30;83.67;101446.69;5052671;28;20544;-75
2023/07/14 05:28:50;;;;;;;9.75;3.42;;;18.90;99.90;;;19.31;83.47;101440.44;5053011;28;20053;-74
2023/07/14 05:31:20;;;;;;;2.30;2.20;;;19.00;99.90;;;19.35;83.60;101442.13;5052939;28;20456;-76
2023/07/14 05:33:50;;;;;;;2.20;2.10;;;19.00;99.90;;;19.42;83.65;101437.44;5052964;28;20049;-74
2023/07/14 05:36:18;;;;;;;17.77;2.73;;;19.10;99.90;;;19.53;83.59;101440.66;5032230;28;20054;-75
2023/07/14 05:38:46;;;;;;;2.35;2.25;;;19.20;99.90;;;19.60;83.05;101456.53;5053157;28;20378;-74
2023/07/14 05:41:16;;;;;;;2.30;2.20;;;19.20;99.90;;;19.63;82.96;101445.69;5052721;28;20044;-76
2023/07/14 05:43:44;;;;;;;3.65;3.45;;;19.30;99.90;;;19.60;82.64;101448.47;5052398;28;20119;-74
2023/07/14 05:46:13;;;;;;;2.40;2.30;;;19.30;99.90;;;19.60;82.54;101447.59;5052423;28;20394;-75
2023/07/14 05:48:42;;;;;;;3.45;3.25;;;19.30;99.90;;;19.62;82.76;101454.66;5051325;28;20164;-74
2023/07/14 05:51:13;;;;;;;2.65;2.55;;;19.30;99.90;;;19.71;82.71;101457.03;5052280;28;20060;-74
2023/07/14 05:53:41;;;;;;;2.90;2.72;;;19.30;99.90;;;19.80;82.83;101442.47;5052297;28;20037;-76
2023/07/14 05:56:10;;;;;;;2.58;2.47;;;19.40;99.90;;;19.88;82.66;101453.78;5052860;28;20044;-74
2023/07/14 05:58:39;;;;;;;2.60;2.50;;;19.50;99.90;;;19.99;82.53;101451.66;5052655;28;20072;-74
2023/07/14 06:01:08;;;;;;;6.22;2.75;;;19.60;99.90;;;20.01;82.81;101443.53;5052300;28;20049;-74
2023/07/14 06:03:36;;;;;;;2.50;2.40;;;19.70;99.90;;;20.09;82.27;101452.22;5052241;28;20036;-74
2023/07/14 06:06:06;;;;;;;2.80;2.70;;;19.70;99.90;;;20.13;81.75;101465.47;5052525;28;20051;-74
2023/07/14 06:08:36;;;;;;;2.47;2.38;;;19.80;99.90;;;20.19;82.41;101445.63;5052574;28;20391;-74
2023/07/14 06:11:05;;;;;;;2.67;2.57;;;19.80;99.90;;;20.31;82.02;101451.44;5050749;28;20131;-74
2023/07/14 06:13:34;;;;;;;2.85;2.53;;;19.90;99.90;;;20.39;81.94;101448.47;5064683;28;20053;-74
2023/07/14 06:16:02;;;;;;;4.38;3.97;;;20.00;99.90;;;20.45;81.29;101453.66;5052030;28;20520;-74
2023/07/14 06:18:31;;;;;;;2.80;2.70;;;20.10;99.90;;;20.48;81.22;101453.53;5048361;28;20049;-74
2023/07/14 06:20:59;;;;;;;2.88;2.78;;;20.10;99.90;;;20.37;81.33;101436.91;5052387;28;20033;-74
2023/07/14 06:23:27;;;;;;;3.65;3.35;;;20.10;99.90;;;20.39;81.17;101443.09;5054137;28;20056;-74
2023/07/14 06:25:58;;;;;;;10.23;3.30;;;20.00;99.90;;;20.29;81.30;101442.56;5056225;28;20076;-74
2023/07/14 06:28:26;;;;;;;2.50;2.40;;;20.00;99.90;;;20.26;81.70;101439.09;5056063;28;20045;-74
2023/07/14 06:30:57;;;;;;;2.65;2.55;;;19.90;99.90;;;19.93;82.17;101390.09;5055902;28;20049;-74
2023/07/14 06:33:26;;;;;;;3.42;3.22;;;19.90;99.90;;;20.26;82.64;101444.47;5056332;28;20049;-75
2023/07/14 06:35:57;;;;;;;3.58;3.38;;;19.90;99.90;;;20.29;82.47;101444.34;5055795;28;20099;-74
2023/07/14 06:38:25;;;;;;;;;;;19.90;99.90;;;20.26;82.12;101442.69;5051594;28;20045;-74
2023/07/14 06:40:58;;;;;;;3.22;3.08;;;19.90;99.90;;;20.18;82.58;101444.75;5055915;28;19920;-74
2023/07/14 06:43:27;;;;;;;2.80;2.70;;;19.80;99.90;;;20.12;82.84;101434.19;5055673;28;20091;-74
2023/07/14 06:45:55;;;;;;;4.75;3.25;;;19.80;99.90;;;20.15;82.92;101436.75;5055904;28;20053;-74
2023/07/14 06:48:26;;;;;;;3.25;3.15;;;19.80;99.90;;;20.15;83.21;101436.75;5055541;28;20037;-74
2023/07/14 06:50:55;;;;;;;3.03;2.92;;;19.80;99.90;;;20.20;82.60;101437.50;5055695;28;20048;-75
2023/07/14 06:53:24;;;;;;;2.60;2.50;;;19.80;99.90;;;20.17;82.72;101442.94;5055476;28;20070;-75
2023/07/14 06:55:54;;;;;;;3.60;3.40;;;19.80;99.90;;;20.16;82.35;101405.38;5051483;28;20049;-75
2023/07/14 06:58:25;;;;;;;2.58;2.47;;;19.90;99.90;;;20.31;81.86;101431.75;5055467;28;20044;-75
2023/07/14 07:00:55;;;;;;;2.85;2.75;;;19.90;99.90;;;20.43;82.11;101432.19;5055469;28;20500;-74
2023/07/14 07:03:23;;;;;;;2.42;2.33;;;20.00;99.90;;;20.44;81.82;101423.19;5055570;28;20049;-74
2023/07/14 07:05:52;;;;;;;2.60;2.50;;;20.10;99.90;;;20.58;81.81;101428.06;5055186;28;20037;-75
2023/07/14 07:08:21;;;;;;;3.00;2.90;;;20.20;99.90;;;20.66;81.48;101420.59;5055271;28;20044;-75
2023/07/14 07:10:50;;;;;;;2.90;2.80;;;20.30;99.90;;;20.64;80.49;101420.66;5055781;28;20045;-75
2023/07/14 07:13:19;;;;;;;2.72;2.63;;;20.30;99.90;;;20.77;80.47;101430.97;5055195;28;20112;-75
2023/07/14 07:15:49;;;;;;;2.35;2.25;;;20.40;99.90;;;20.74;80.13;101421.19;5051123;28;20131;-74
2023/07/14 07:18:28;;;;;;;7.80;2.95;;;20.40;99.90;;;20.77;80.55;101418.38;5052114;28;20053;-74
2023/07/14 07:20:56;;;;;;;3.72;3.42;;;20.40;99.90;;;20.64;80.28;101404.53;5055019;28;20059;-75
2023/07/14 07:23:25;;;;;;;2.35;2.25;;;20.30;99.90;;;20.63;80.72;101391.16;5055321;28;20072;-75
2023/07/14 07:25:56;;;;;;;3.42;3.17;;;20.40;99.90;;;20.87;79.96;101424.28;5055004;28;20045;-75
2023/07/14 07:28:25;;;;;;;;;;;20.50;99.90;;;20.86;80.21;101414.47;5055413;28;20033;-75
2023/07/14 07:30:54;;;;;;;2.67;2.58;;;20.50;99.90;;;20.88;79.31;101402.75;5051473;28;19920;-74
2023/07/14 07:33:23;;;;;;;2.47;2.37;;;20.50;99.90;;;20.95;79.56;101416.81;5054642;28;20473;-74
2023/07/14 07:35:54;;;;;;;3.20;2.72;;;20.60;99.90;;;20.98;79.26;101416.72;5051608;28;20740;-75
2023/07/14 07:38:23;;;;;;;2.35;2.25;;;20.70;99.90;;;21.08;78.16;101410.06;5054785;28;20565;-75
2023/07/14 07:40:51;;;;;;;3.17;2.97;;;20.70;99.90;;;21.22;77.80;101413.09;5054817;28;20099;-75
2023/07/14 07:43:22;;;;;;;3.17;3.08;;;20.80;99.90;;;21.26;76.81;101409.34;5054600;28;20053;-74
2023/07/14 07:45:50;;;;;;;;;;;20.90;99.90;;;21.34;77.14;101407.22;5054879;28;20056;-75
2023/07/14 07:48:20;;;;;;;8.35;5.18;;;20.90;99.90;;;21.46;76.60;101406.72;5054468;28;20433;-74
2023/07/14 07:50:49;;;;;;;2.80;2.70;;;21.10;99.90;;;21.51;76.13;101402.03;5051696;28;20551;-74
2023/07/14 07:53:17;;;;;;;4.07;3.75;;;21.20;99.90;;;21.54;75.56;101397.38;5054592;28;20045;-74
2023/07/14 07:55:53;;;;;;;3.22;3.13;;;21.20;99.90;;;21.56;74.73;101394.66;5054274;28;20049;-75
2023/07/14 07:58:25;;;;;;;3.10;3.00;;;21.20;99.90;;;21.58;73.98;101399.00;5054342;28;20095;-75
2023/07/14 08:00:55;;;;;;;2.83;2.72;;;21.20;99.90;;;21.46;74.14;101379.81;5054277;28;20091;-75
2023/07/14 08:03:25;;;;;;;3.30;3.13;;;21.20;99.90;;;21.62;74.11;101394.41;5050795;28;20060;-74
2023/07/14 08:05:59;;;;;;;2.70;2.60;;;21.30;99.90;;;21.71;73.53;101403.91;5050782;28;20490;-76
2023/07/14 08:08:28;;;;;;;2.70;2.60;;;21.30;99.90;;;21.79;73.91;101399.06;5054185;28;20095;-74
2023/07/14 08:10:57;;;;;;;2.78;2.65;;;21.40;99.90;;;21.89;73.34;101395.09;5054536;28;20148;-74
2023/07/14 08:13:28;;;;;;;2.70;2.60;;;21.50;99.90;;;21.90;72.25;101391.44;5054545;28;20061;-74
2023/07/14 08:15:58;;;;;;;2.58;2.47;;;21.50;99.90;;;21.92;72.90;101397.63;5054227;28;20094;-75
2023/07/14 08:18:29;;;;;;;2.70;2.60;;;21.60;99.90;;;21.41;73.25;101287.56;5054188;28;20045;-74
2023/07/14 08:20:58;;;;;;;2.40;2.30;;;21.60;99.90;;;21.96;72.46;101400.16;5053855;28;20087;-75
2023/07/14 08:23:27;;;;;;;2.60;2.50;;;21.60;99.90;;;21.90;72.25;101394.13;5054084;28;20057;-74
2023/07/14 08:25:59;;;;;;;3.37;3.17;;;21.60;99.90;;;21.83;71.69;101398.03;5053648;28;20431;-74
2023/07/14 08:28:28;;;;;;;2.30;2.20;;;21.50;99.90;;;21.91;71.15;101394.06;5052798;28;20311;-75
2023/07/14 08:31:01;;;;;;;2.25;2.15;;;21.50;99.90;;;21.72;71.18;101362.56;5053688;28;20048;-74
2023/07/14 08:33:31;;;;;;;2.30;2.20;;;21.50;99.90;;;21.89;70.02;101379.78;5049697;28;20102;-74
2023/07/14 08:36:01;;;;;;;2.65;2.55;;;21.50;99.90;;;21.99;69.46;101373.06;5050578;28;20140;-74
2023/07/14 08:38:32;;;;;;;2.28;2.17;;;21.60;99.90;;;22.14;69.78;101369.69;5061197;28;20114;-74
2023/07/14 08:41:09;;;;;;;2.50;2.40;;;21.70;99.90;;;22.18;70.51;101371.31;5051066;28;20050;-74
2023/07/14 08:43:58;;;;;;;2.38;2.28;;;21.90;99.90;;;22.29;69.96;101382.50;5053795;28;20406;-73
2023/07/14 08:46:37;;;;;;;2.40;2.30;;;21.90;99.90;;;22.48;69.79;101385.25;5051882;28;20041;-74
2023/07/14 08:49:22;;;;;;;2.67;2.55;;;22.10;99.90;;;22.52;66.33;101376.06;5049821;28;20049;-75
2023/07/14 08:51:55;;;;;;;2.30;2.20;;;22.20;99.90;;;22.65;67.52;101371.91;5053304;28;20393;-75
2023/07/14 08:54:30;;;;;;;2.40;2.30;;;22.30;99.90;;;22.68;66.59;101377.16;5049811;28;20482;-75
2023/07/14 08:56:59;;;;;;;2.38;2.28;;;22.40;99.90;;;22.72;66.30;101369.81;5052260;28;20053;-74
2023/07/14 08:59:38;;;;;;;2.60;2.50;;;22.40;99.90;;;22.69;65.95;101376.22;5053164;28;20045;-74
2023/07/14 09:02:20;;;;;;;2.92;2.78;;;22.40;99.90;;;22.50;67.78;101371.69;5053159;28;20040;-74
2023/07/14 09:05:02;;;;;;;3.80;3.60;;;22.30;99.90;;;22.67;66.49;101375.41;5051032;28;20052;-75
2023/07/14 09:07:30;;;;;;;3.13;2.92;;;22.30;99.90;;;22.64;66.19;101372.84;5049652;28;20390;-74
2023/07/14 09:09:59;;;;;;;2.53;2.42;;;22.40;99.90;;;22.80;66.12;101371.19;5053206;28;20063;-75
2023/07/14 09:12:37;;;;;;;2.40;2.30;;;22.40;99.90;;;22.63;64.12;101343.25;5053206;28;20045;-75
2023/07/14 09:15:10;;;;;;;4.45;4.13;;;22.50;99.90;;;22.71;64.29;101370.72;5053073;28;20472;-76
2023/07/14 09:17:49;;;;;;;2.53;2.42;;;22.40;99.90;;;22.76;62.64;101368.72;5052851;28;20037;-75
2023/07/14 09:20:52;;;;;;;2.05;1.95;;;22.50;99.90;;;22.88;63.15;101373.53;5050530;28;20037;-75
2023/07/14 09:23:47;;;;;;;2.03;1.92;;;22.60;99.90;;;23.07;62.73;101371.72;5051704;28;20064;-75
2023/07/14 09:26:23;;;;;;;3.03;2.92;;;22.70;99.90;;;23.10;62.49;101369.75;5051344;28;20444;-75
2023/07/14 09:28:53;;;;;;;2.22;2.13;;;22.80;99.90;;;23.05;61.58;101368.22;5048881;28;20080;-74
2023/07/14 09:31:37;;;;;;;2.70;2.50;;;22.80;99.90;;;22.94;60.02;101373.22;5049440;28;20064;-75
2023/07/14 09:34:17;;;;;;;2.30;2.20;;;22.70;99.90;;;22.96;61.50;101355.13;5052650;28;20415;-75
2023/07/14 09:36:48;;;;;;;3.53;3.15;;;22.70;99.90;;;22.84;60.07;101362.00;5052610;28;20049;-74
2023/07/14 09:39:24;;;;;;;2.60;2.50;;;22.60;99.90;;;22.97;60.64;101367.69;5052525;28;20490;-75
2023/07/14 09:41:58;;;;;;;2.10;2.00;;;22.60;99.90;;;23.00;59.87;101354.94;5052796;28;20056;-75
2023/07/14 09:44:28;;;;;;;2.47;2.38;;;22.70;99.90;;;22.98;59.05;101355.94;5049083;28;20479;-75
2023/07/14 09:47:00;;;;;;;2.20;2.10;;;22.70;99.90;;;23.04;59.40;101358.34;5051458;28;20132;-75
2023/07/14 09:49:36;;;;;;;2.65;2.55;;;22.70;99.90;;;23.03;58.14;101351.22;5053025;28;20074;-74
2023/07/14 09:52:14;;;;;;;2.78;2.67;;;22.70;99.90;;;23.09;58.71;101345.53;5052384;28;20041;-74
2023/07/14 09:54:50;;;;;;;2.50;2.40;;;22.70;99.90;;;22.51;58.87;101255.69;5065384;28;20379;-75
2023/07/14 09:57:21;;;;;;;2.45;2.35;;;22.80;99.90;;;23.08;58.94;101347.34;5053382;28;20064;-74
2023/07/14 10:00:19;;;;;;;2.35;2.25;;;22.70;99.90;;;23.02;57.78;101350.34;5054201;28;20084;-74
2023/07/14 10:02:52;;;;;;;2.30;2.20;;;22.70;99.90;;;22.82;57.13;101309.06;5057054;28;20049;-73
2023/07/14 10:05:49;;;;;;;2.42;2.33;;;22.70;99.90;;;23.08;57.68;101354.56;5052069;28;20068;-75
2023/07/14 10:08:33;;;;;;;2.30;2.20;;;22.70;99.90;;;22.96;55.57;101338.94;5053310;28;20041;-74
2023/07/14 10:11:19;;;;;;;2.40;2.30;;;22.60;99.90;;;22.80;56.67;101311.81;5055305;28;20049;-74
2023/07/14 10:13:54;;;;;;;2.20;2.10;;;22.60;99.90;;;22.97;57.20;101327.22;5054812;28;20478;-75
2023/07/14 10:16:24;;;;;;;2.42;2.33;;;22.50;99.90;;;22.95;58.75;101338.09;5056261;28;20498;-74
2023/07/14 10:18:58;;;;;;;2.75;2.65;;;22.60;99.90;;;22.40;57.71;101307.41;5052294;28;20433;-74
2023/07/14 10:21:30;;;;;;;2.25;2.15;;;22.40;99.90;;;22.47;59.40;101328.69;5056232;28;20053;-74
2023/07/14 10:24:04;;;;;;;2.35;2.25;;;22.20;99.90;;;22.47;60.19;101326.00;5056485;28;20106;-74
2023/07/14 10:26:35;;;;;;;2.58;2.47;;;22.10;99.90;;;22.53;59.39;101315.78;5056002;28;20048;-74
2023/07/14 10:29:06;;;;;;;2.70;2.60;;;22.20;99.90;;;22.59;57.90;101296.66;5055789;28;20045;-74
2023/07/14 10:31:39;;;;;;;2.10;2.00;;;22.20;99.90;;;22.44;56.35;101260.47;5051654;28;20144;-74